Time;durP1;ratioP1;P1;durP2;ratioP2;P2;SDS_P1;SDS_P2;PMS_P1;PMS_P2;Temp;Humidity;BMP_temperature;BMP_pressure;BME280_temperature;BME280_humidity;BME280_pressure;Samples;Min_cycle;Max_cycle;Signal;HPM_P1;HPM_P2
2022/04/02 00:01:44;;;;;;;;;;;;;;;0.31;100.00;96680.05;1627817;86;26142;-86
2022/04/02 00:04:10;;;;;;;;;;;;;;;0.33;100.00;96679.94;1639599;86;24582;-86
2022/04/02 00:06:37;;;;;;;;;;;;;;;0.34;100.00;96676.00;1623876;86;20245;-85
2022/04/02 00:09:03;;;;;;;;;;;;;;;0.37;100.00;96677.59;1628024;86;24727;-86
2022/04/02 00:11:29;;;;;;;;;;;;;;;0.43;100.00;96679.81;1627210;88;21972;-85
2022/04/02 00:13:56;;;;;;;;;;;;;;;0.43;100.00;96682.84;1621579;86;25964;-86
2022/04/02 00:16:25;;;;;;;;;;;;;;;0.40;100.00;96678.69;1629788;86;24396;-86
2022/04/02 00:18:51;;;;;;;;;;;;;;;0.38;100.00;96680.05;1630116;87;20441;-85
2022/04/02 00:21:20;;;;;;;;;;;;;;;0.37;100.00;96675.02;1629875;86;24950;-85
2022/04/02 00:23:46;;;;;;;;;;;;;;;0.36;100.00;96675.47;1631118;85;21974;-85
2022/04/02 00:26:22;;;;;;;;;;;;;;;0.33;100.00;96673.06;1629826;87;26000;-85
2022/04/02 00:28:49;;;;;;;;;;;;;;;0.29;100.00;96674.16;1631202;88;24538;-85
2022/04/02 00:31:16;;;;;;;;;;;;;;;0.32;100.00;96670.59;1628524;86;20159;-86
2022/04/02 00:33:43;;;;;;;;;;;;;;;0.28;100.00;96672.49;1631344;86;24815;-86
2022/04/02 00:36:10;;;;;;;;;;;;;;;0.27;100.00;96671.32;1623948;86;22709;-85
2022/04/02 00:38:37;;;;;;;;;;;;;;;0.25;100.00;96666.70;1612161;87;26867;-86
2022/04/02 00:41:03;;;;;;;;;;;;;;;0.28;100.00;96667.34;1626049;86;24456;-86
2022/04/02 00:43:30;;;;;;;;;;;;;;;0.32;100.00;96675.28;1630366;86;20303;-85
2022/04/02 00:46:12;;;;;;;;;;;;;;;0.32;100.00;96674.00;1628998;86;24735;-86
2022/04/02 00:48:39;;;;;;;;;;;;;;;0.31;100.00;96669.77;1628147;86;22092;-86
2022/04/02 00:51:12;;;;;;;;;;;;;;;0.33;100.00;96665.80;1607580;86;26008;-85
2022/04/02 00:53:41;;;;;;;;;;;;;;;0.30;100.00;96671.13;1606820;87;24460;-86
2022/04/02 00:56:08;;;;;;;;;;;;;;;0.32;100.00;96666.73;1606309;87;20317;-85
2022/04/02 00:58:34;;;;;;;;;;;;;;;0.37;100.00;96667.30;1634403;86;24841;-84
2022/04/02 01:01:03;;;;;;;;;;;;;;;0.39;100.00;96666.73;1630251;86;22054;-85
2022/04/02 01:03:28;;;;;;;;;;;;;;;0.35;100.00;96669.95;1614335;86;26081;-84
2022/04/02 01:05:54;;;;;;;;;;;;;;;0.33;100.00;96666.62;1628476;86;25215;-86
2022/04/02 01:08:22;;;;;;;;;;;;;;;0.29;100.00;96665.61;1633234;86;20174;-85
2022/04/02 01:10:48;;;;;;;;;;;;;;;0.26;100.00;96669.20;1626138;86;24743;-84
2022/04/02 01:13:16;;;;;;;;;;;;;;;0.32;100.00;96669.31;1611823;87;21931;-84
2022/04/02 01:15:42;;;;;;;;;;;;;;;0.30;100.00;96665.53;1613846;87;26061;-83
2022/04/02 01:18:08;;;;;;;;;;;;;;;0.31;100.00;96671.50;1609932;86;24668;-86
2022/04/02 01:20:40;;;;;;;;;;;;;;;0.32;100.00;96668.02;1604145;87;20345;-85
2022/04/02 01:23:08;;;;;;;;;;;;;;;0.32;100.00;96671.88;1620345;87;24751;-84
2022/04/02 01:25:35;;;;;;;;;;;;;;;0.35;100.00;96669.12;1626935;86;22067;-84
2022/04/02 01:28:02;;;;;;;;;;;;;;;0.38;100.00;96675.39;1606157;86;26099;-84
2022/04/02 01:30:29;;;;;;;;;;;;;;;0.38;100.00;96676.67;1602368;89;24522;-86
2022/04/02 01:32:55;;;;;;;;;;;;;;;0.39;100.00;96683.45;1607603;87;20369;-85
2022/04/02 01:35:22;;;;;;;;;;;;;;;0.37;100.00;96684.02;1637937;86;24748;-86
2022/04/02 01:37:49;;;;;;;;;;;;;;;0.46;100.00;96685.23;1627887;86;21956;-86
2022/04/02 01:40:15;;;;;;;;;;;;;;;0.47;100.00;96684.31;1620866;87;26195;-86
2022/04/02 01:42:41;;;;;;;;;;;;;;;0.44;100.00;96683.22;1620020;86;24406;-86
2022/04/02 01:45:08;;;;;;;;;;;;;;;0.44;100.00;96684.02;1623527;87;20746;-85
2022/04/02 01:47:34;;;;;;;;;;;;;;;0.45;100.00;96689.54;1617992;86;24714;-85
2022/04/02 01:50:00;;;;;;;;;;;;;;;0.49;100.00;96694.91;1636840;87;21934;-85
2022/04/02 01:52:29;;;;;;;;;;;;;;;0.46;100.00;96698.09;1642094;87;20915;-86
2022/04/02 01:54:54;;;;;;;;;;;;;;;0.44;100.00;96697.37;1632383;86;25082;-85
2022/04/02 01:57:20;;;;;;;;;;;;;;;0.36;100.00;96701.66;1622340;86;20241;-85
2022/04/02 01:59:48;;;;;;;;;;;;;;;0.46;100.00;96705.81;1611203;88;20263;-86
2022/04/02 02:02:14;;;;;;;;;;;;;;;0.51;100.00;96707.66;1614781;87;22005;-85
2022/04/02 02:04:42;;;;;;;;;;;;;;;0.53;100.00;96709.70;1620636;87;26791;-86
2022/04/02 02:07:08;;;;;;;;;;;;;;;0.52;100.00;96706.30;1620468;87;24699;-86
2022/04/02 02:09:34;;;;;;;;;;;;;;;0.52;100.00;96712.73;1620829;86;20471;-86
2022/04/02 02:12:01;;;;;;;;;;;;;;;0.48;100.00;96720.72;1589618;87;24820;-86
2022/04/02 02:14:28;;;;;;;;;;;;;;;0.37;100.00;96718.30;1620979;85;22870;-86
2022/04/02 02:16:55;;;;;;;;;;;;;;;0.38;100.00;96719.93;1611078;87;27077;-86
2022/04/02 02:19:21;;;;;;;;;;;;;;;0.35;100.00;96718.83;1599992;87;24561;-86
2022/04/02 02:21:46;;;;;;;;;;;;;;;0.44;100.00;96720.53;1597419;89;20351;-85
2022/04/02 02:24:15;;;;;;;;;;;;;;;0.47;100.00;96725.48;1598162;88;20224;-85
2022/04/02 02:26:41;;;;;;;;;;;;;;;0.47;100.00;96718.59;1596489;89;22025;-84
2022/04/02 02:29:07;;;;;;;;;;;;;;;0.46;100.00;96718.22;1581150;89;26805;-84
2022/04/02 02:31:38;;;;;;;;;;;;;;;0.48;100.00;96715.56;1599576;89;25307;-85
2022/04/02 02:36:46;;;;;;;;;;;;;;;0.35;100.00;96716.72;1577625;88;24806;-85
2022/04/02 02:39:18;;;;;;;;;;;;;;;0.32;100.00;96713.88;1599695;89;20457;-85
2022/04/02 02:41:44;;;;;;;;;;;;;;;0.36;100.00;96714.06;1582288;89;26078;-84
2022/04/02 02:44:10;;;;;;;;;;;;;;;0.39;100.00;96715.62;1583640;89;20338;-85
2022/04/02 02:46:36;;;;;;;;;;;;;;;0.37;100.00;96711.03;1590095;88;20233;-85
2022/04/02 02:49:02;;;;;;;;;;;;;;;0.44;100.00;96715.38;1588540;88;25542;-85
2022/04/02 02:51:32;;;;;;;;;;;;;;;0.44;100.00;96716.67;1577580;89;22663;-85
2022/04/02 02:53:57;;;;;;;;;;;;;;;0.50;100.00;96711.14;1594835;89;26116;-85
2022/04/02 02:56:23;;;;;;;;;;;;;;;0.51;100.00;96715.37;1599052;89;20283;-86
2022/04/02 02:58:49;;;;;;;;;;;;;;;0.48;100.00;96717.69;1600851;88;20815;-85
2022/04/02 03:01:16;;;;;;;;;;;;;;;0.45;100.00;96712.70;1598653;88;20228;-85
2022/04/02 03:03:48;;;;;;;;;;;;;;;0.47;100.00;96711.33;1598286;88;22217;-84
2022/04/02 03:06:14;;;;;;;;;;;;;;;0.58;100.00;96715.41;1607762;88;25967;-84
2022/04/02 03:08:40;;;;;;;;;;;;;;;0.61;100.00;96716.50;1599453;89;25155;-84
2022/04/02 03:11:06;;;;;;;;;;;;;;;0.57;100.00;96713.74;1590681;90;20216;-86
2022/04/02 03:13:32;;;;;;;;;;;;;;;0.59;100.00;96715.78;1600211;89;25553;-85
2022/04/02 03:16:02;;;;;;;;;;;;;;;0.63;100.00;96712.94;1605922;87;21864;-83
2022/04/02 03:18:28;;;;;;;;;;;;;;;0.61;100.00;96715.22;1601118;88;26114;-86
2022/04/02 03:20:54;;;;;;;;;;;;;;;0.54;100.00;96714.77;1598970;88;25357;-86
2022/04/02 03:23:22;;;;;;;;;;;;;;;0.55;100.00;96709.97;1577856;89;20252;-86
2022/04/02 03:25:48;;;;;;;;;;;;;;;0.62;100.00;96715.14;1599163;88;24800;-85
2022/04/02 03:28:14;;;;;;;;;;;;;;;0.62;100.00;96715.59;1589792;89;20323;-86
2022/04/02 03:30:40;;;;;;;;;;;;;;;0.62;100.00;96716.42;1599288;88;26803;-86
2022/04/02 03:33:06;;;;;;;;;;;;;;;0.70;100.00;96714.70;1602306;87;20289;-86
2022/04/02 03:35:33;;;;;;;;;;;;;;;0.71;100.00;96713.30;1583976;89;20577;-86
2022/04/02 03:38:02;;;;;;;;;;;;;;;0.70;100.00;96710.84;1605177;88;24752;-86
2022/04/02 03:40:28;;;;;;;;;;;;;;;0.71;100.00;96721.03;1582822;88;21508;-86
2022/04/02 03:43:03;;;;;;;;;;;;;;;0.73;100.00;96723.52;1554203;91;20832;-86
2022/04/02 03:45:29;;;;;;;;;;;;;;;0.64;100.00;96718.46;1586786;88;24469;-87
2022/04/02 03:47:56;;;;;;;;;;;;;;;0.55;100.00;96725.86;1579488;89;20285;-86
2022/04/02 03:50:22;;;;;;;;;;;;;;;0.56;100.00;96735.24;1579936;89;24775;-85
2022/04/02 03:52:49;;;;;;;;;;;;;;;0.57;100.00;96733.05;1594281;87;20290;-85
2022/04/02 03:55:15;;;;;;;;;;;;;;;0.58;100.00;96734.25;1588289;88;26043;-85
2022/04/02 03:57:41;;;;;;;;;;;;;;;0.57;100.00;96740.31;1599658;87;24370;-85
2022/04/02 04:00:09;;;;;;;;;;;;;;;0.56;100.00;96744.25;1588173;90;20258;-87
2022/04/02 04:02:42;;;;;;;;;;;;;;;0.54;100.00;96744.36;1597167;88;24578;-87
2022/04/02 04:05:08;;;;;;;;;;;;;;;0.54;100.00;96747.39;1599029;88;22000;-85
2022/04/02 04:07:38;;;;;;;;;;;;;;;0.48;100.00;96745.16;1589499;90;26156;-85
2022/04/02 04:10:05;;;;;;;;;;;;;;;0.53;100.00;96750.42;1597726;89;24414;-85
2022/04/02 04:12:32;;;;;;;;;;;;;;;0.56;100.00;96755.83;1596997;89;20229;-85
2022/04/02 04:14:58;;;;;;;;;;;;;;;0.55;100.00;96755.45;1590098;89;24873;-85
2022/04/02 04:17:24;;;;;;;;;;;;;;;0.56;100.00;96754.55;1589349;89;22046;-87
2022/04/02 04:19:51;;;;;;;;;;;;;;;0.60;100.00;96758.62;1594292;88;25964;-86
2022/04/02 04:22:17;;;;;;;;;;;;;;;0.60;100.00;96761.20;1594442;89;24539;-85
2022/04/02 04:24:43;;;;;;;;;;;;;;;0.64;100.00;96762.67;1588347;87;20377;-85
2022/04/02 04:27:09;;;;;;;;;;;;;;;0.63;100.00;96763.13;1585796;88;24896;-85
2022/04/02 04:29:36;;;;;;;;;;;;;;;0.59;100.00;96769.83;1595865;88;20300;-85
2022/04/02 04:32:02;;;;;;;;;;;;;;;0.57;100.00;96762.64;1591788;89;26809;-85
2022/04/02 04:34:28;;;;;;;;;;;;;;;0.55;100.00;96761.89;1588785;89;24388;-85
2022/04/02 04:36:54;;;;;;;;;;;;;;;0.57;100.00;96763.48;1598233;88;20328;-85
2022/04/02 04:39:21;;;;;;;;;;;;;;;0.55;100.00;96765.30;1581404;89;24875;-85
2022/04/02 04:41:47;;;;;;;;;;;;;;;0.54;100.00;96770.55;1597444;88;21999;-86
2022/04/02 04:44:13;;;;;;;;;;;;;;;0.50;100.00;96769.05;1595331;88;26231;-85
2022/04/02 04:46:40;;;;;;;;;;;;;;;0.54;100.00;96768.81;1590024;88;24440;-85
2022/04/02 04:49:06;;;;;;;;;;;;;;;0.57;100.00;96778.09;1593566;88;20284;-85
2022/04/02 04:51:32;;;;;;;;;;;;;;;0.54;100.00;96771.84;1595854;88;24804;-85
2022/04/02 04:53:58;;;;;;;;;;;;;;;0.53;100.00;96771.46;1599272;87;22072;-86
2022/04/02 04:56:24;;;;;;;;;;;;;;;0.56;100.00;96775.97;1598925;87;26009;-85
2022/04/02 04:58:50;;;;;;;;;;;;;;;0.62;100.00;96780.77;1595629;87;25211;-86
2022/04/02 05:01:16;;;;;;;;;;;;;;;0.68;100.00;96784.74;1599093;88;20423;-85
2022/04/02 05:03:44;;;;;;;;;;;;;;;0.65;100.00;96787.50;1598717;88;24744;-86
2022/04/02 05:06:11;;;;;;;;;;;;;;;0.70;100.00;96791.93;1597017;88;22464;-86
2022/04/02 05:08:37;;;;;;;;;;;;;;;0.74;100.00;96786.97;1586251;88;26262;-84
2022/04/02 05:11:03;;;;;;;;;;;;;;;0.82;100.00;96789.92;1598509;88;24395;-85
2022/04/02 05:13:31;;;;;;;;;;;;;;;0.87;100.00;96786.65;1598372;87;20412;-85
2022/04/02 05:15:57;;;;;;;;;;;;;;;0.88;100.00;96789.57;1592722;89;24736;-85
2022/04/02 05:18:23;;;;;;;;;;;;;;;0.90;100.00;96789.03;1600101;89;22745;-85
2022/04/02 05:20:49;;;;;;;;;;;;;;;0.93;100.00;96783.70;1602012;87;26121;-86
2022/04/02 05:23:15;;;;;;;;;;;;;;;0.90;100.00;96789.03;1624614;86;24404;-85
2022/04/02 05:25:42;;;;;;;;;;;;;;;0.88;100.00;96790.86;1611275;87;21096;-85
2022/04/02 05:28:11;;;;;;;;;;;;;;;0.81;100.00;96790.41;1629025;86;24952;-86
2022/04/02 05:30:43;;;;;;;;;;;;;;;0.78;100.00;96796.17;1627586;86;22075;-86
2022/04/02 05:33:09;;;;;;;;;;;;;;;0.75;100.00;96795.07;1628447;87;26183;-85
2022/04/02 05:35:35;;;;;;;;;;;;;;;0.73;100.00;96788.72;1624047;86;24473;-85
2022/04/02 05:38:01;;;;;;;;;;;;;;;0.65;100.00;96790.91;1615584;87;20228;-85
2022/04/02 05:40:27;;;;;;;;;;;;;;;0.68;100.00;96797.16;1627949;86;24873;-84
2022/04/02 05:42:54;;;;;;;;;;;;;;;0.65;100.00;96790.08;1623883;86;22042;-85
2022/04/02 05:45:20;;;;;;;;;;;;;;;0.68;100.00;96795.04;1622011;86;26040;-85
2022/04/02 05:47:50;;;;;;;;;;;;;;;0.65;100.00;96796.52;1617896;86;25235;-84
2022/04/02 05:50:17;;;;;;;;;;;;;;;0.66;100.00;96796.86;1634638;86;20325;-86
2022/04/02 05:52:44;;;;;;;;;;;;;;;0.69;100.00;96801.39;1609586;88;24822;-84
2022/04/02 05:55:11;;;;;;;;;;;;;;;0.71;100.00;96803.89;1631996;85;22152;-85
2022/04/02 05:57:37;;;;;;;;;;;;;;;0.65;100.00;96801.20;1624426;85;25997;-86
2022/04/02 06:00:10;;;;;;;;;;;;;;;0.59;100.00;96799.43;1621837;86;24643;-86
2022/04/02 06:02:37;;;;;;;;;;;;;;;0.55;100.00;96809.50;1630627;86;20873;-86
2022/04/02 06:05:04;;;;;;;;;;;;;;;0.56;100.00;96814.57;1627654;86;24762;-85
2022/04/02 06:07:30;;;;;;;;;;;;;;;0.57;100.00;96809.80;1628273;86;21918;-86
2022/04/02 06:09:57;;;;;;;;;;;;;;;0.61;100.00;96815.14;1627083;86;26040;-86
2022/04/02 06:12:23;;;;;;;;;;;;;;;0.70;100.00;96815.93;1625780;87;24408;-86
2022/04/02 06:14:49;;;;;;;;;;;;;;;0.67;100.00;96818.66;1611878;86;20281;-86
2022/04/02 06:17:17;;;;;;;;;;;;;;;0.65;100.00;96815.81;1580581;89;25419;-86
2022/04/02 06:19:43;;;;;;;;;;;;;;;0.61;100.00;96822.03;1578830;89;21843;-86
2022/04/02 06:22:09;;;;;;;;;;;;;;;0.64;100.00;96816.27;1606942;87;21175;-85
2022/04/02 06:24:35;;;;;;;;;;;;;;;0.71;100.00;96817.56;1637818;86;24475;-86
2022/04/02 06:27:04;;;;;;;;;;;;;;;0.76;100.00;96817.33;1609670;87;20147;-84
2022/04/02 06:29:30;;;;;;;;;;;;;;;0.77;100.00;96818.51;1620837;86;24821;-84
2022/04/02 06:31:58;;;;;;;;;;;;;;;0.70;100.00;96818.95;1605081;88;22611;-85
2022/04/02 06:34:24;;;;;;;;;;;;;;;0.73;100.00;96812.34;1604252;88;26022;-85
2022/04/02 06:36:50;;;;;;;;;;;;;;;0.86;100.00;96821.49;1630464;86;25204;-85
2022/04/02 06:39:22;;;;;;;;;;;;;;;0.85;100.00;96819.38;1643232;86;20250;-85
2022/04/02 06:41:51;;;;;;;;;;;;;;;0.83;100.00;96823.77;1629985;86;24818;-86
2022/04/02 06:44:18;;;;;;;;;;;;;;;0.77;100.00;96824.11;1638443;86;22150;-85
2022/04/02 06:46:44;;;;;;;;;;;;;;;0.79;100.00;96830.02;1609482;86;26168;-85
2022/04/02 06:49:10;;;;;;;;;;;;;;;0.78;100.00;96827.89;1602802;88;24473;-85
2022/04/02 06:51:38;;;;;;;;;;;;;;;0.73;100.00;96823.92;1602672;89;20621;-85
2022/04/02 06:54:05;;;;;;;;;;;;;;;0.73;100.00;96823.47;1606014;87;24808;-85
2022/04/02 06:56:31;;;;;;;;;;;;;;;0.74;100.00;96825.59;1641723;86;22042;-85
2022/04/02 06:58:57;;;;;;;;;;;;;;;0.69;100.00;96828.88;1605665;86;26140;-86
2022/04/02 07:01:23;;;;;;;;;;;;;;;0.69;100.00;96832.29;1659464;83;24607;-85
2022/04/02 07:03:55;;;;;;;;;;;;;;;0.77;100.00;96830.09;1640837;86;20275;-85
2022/04/02 07:06:21;;;;;;;;;;;;;;;0.83;100.00;96839.22;1639111;85;24823;-86
2022/04/02 07:08:51;;;;;;;;;;;;;;;0.82;100.00;96843.98;1635843;87;20181;-86
2022/04/02 07:11:17;;;;;;;;;;;;;;;0.81;100.00;96844.48;1626337;86;25946;-86
2022/04/02 07:13:44;;;;;;;;;;;;;;;0.81;100.00;96843.64;1632840;87;24535;-86
2022/04/02 07:16:10;;;;;;;;;;;;;;;0.82;100.00;96843.98;1613184;86;20242;-86
2022/04/02 07:18:46;;;;;;;;;;;;;;;0.84;100.00;96848.61;1626410;85;25435;-86
2022/04/02 07:21:13;;;;;;;;;;;;;;;0.91;100.00;96852.95;1608067;87;22196;-86
2022/04/02 07:23:41;;;;;;;;;;;;;;;0.93;100.00;96848.08;1627132;86;26137;-87
2022/04/02 07:26:10;;;;;;;;;;;;;;;0.97;100.00;96851.33;1611417;87;25121;-87
2022/04/02 07:28:44;;;;;;;;;;;;;;;0.88;100.00;96860.84;1630686;85;20352;-86
2022/04/02 07:31:10;;;;;;;;;;;;;;;0.78;100.00;96861.82;1611457;87;24760;-87
2022/04/02 07:33:38;;;;;;;;;;;;;;;0.76;100.00;96863.67;1608049;87;22833;-85
2022/04/02 07:36:08;;;;;;;;;;;;;;;0.80;100.00;96867.73;1610725;87;26990;-85
2022/04/02 07:38:41;;;;;;;;;;;;;;;0.84;100.00;96871.33;1611642;87;24629;-86
2022/04/02 07:41:18;;;;;;;;;;;;;;;0.82;100.00;96869.73;1614722;87;20285;-85
2022/04/02 07:43:46;;;;;;;;;;;;;;;0.73;100.00;96879.27;1603260;86;24856;-84
2022/04/02 07:46:14;;;;;;;;;;;;;;;0.74;100.00;96881.77;1578178;88;21960;-85
2022/04/02 07:48:41;;;;;;;;;;;;;;;0.74;100.00;96880.48;1601009;88;27096;-85
2022/04/02 07:51:09;;;;;;;;;;;;;;;0.73;100.00;96879.27;1607736;87;24608;-85
2022/04/02 07:53:37;;;;;;;;;;;;;;;0.74;100.00;96883.51;1605595;87;20224;-86
2022/04/02 07:56:06;;;;;;;;;;;;;;;0.75;100.00;96886.01;1625095;86;20548;-87
2022/04/02 07:58:32;;;;;;;;;;;;;;;0.72;100.00;96891.31;1621621;86;22137;-85
2022/04/02 08:01:02;;;;;;;;;;;;;;;0.72;100.00;96890.02;1610339;87;21275;-85
2022/04/02 08:03:30;;;;;;;;;;;;;;;0.79;100.00;96896.95;1629234;86;25327;-85
2022/04/02 08:05:56;;;;;;;;;;;;;;;0.79;100.00;96899.53;1627920;86;20215;-85
2022/04/02 08:08:25;;;;;;;;;;;;;;;0.77;100.00;96892.34;1630598;87;24755;-84
2022/04/02 08:10:53;;;;;;;;;;;;;;;0.71;100.00;96897.37;1626093;86;20535;-85
2022/04/02 08:13:21;;;;;;;;;;;;;;;0.70;100.00;96903.91;1627407;88;26075;-87
2022/04/02 08:15:54;;;;;;;;;;;;;;;0.75;100.00;96904.03;1627744;86;20217;-85
2022/04/02 08:18:22;;;;;;;;;;;;;;;0.74;100.00;96899.79;1632066;87;20326;-86
2022/04/02 08:20:52;;;;;;;;;;;;;;;0.67;100.00;96906.64;1628200;87;24765;-85
2022/04/02 08:23:18;;;;;;;;;;;;;;;0.65;100.00;96905.45;1627366;86;22272;-85
2022/04/02 08:25:46;;;;;;;;;;;;;;;0.69;100.00;96907.39;1624210;86;20910;-85
2022/04/02 08:28:13;;;;;;;;;;;;;;;0.70;100.00;96909.06;1622746;88;25369;-86
2022/04/02 08:30:47;;;;;;;;;;;;;;;0.70;100.00;96909.89;1620718;88;20490;-86
2022/04/02 08:33:19;;;;;;;;;;;;;;;0.73;100.00;96915.31;1630287;86;26093;-85
2022/04/02 08:35:58;;;;;;;;;;;;;;;0.59;100.00;96926.83;1630531;86;22887;-85
2022/04/02 08:38:31;;;;;;;;;;;;;;;0.45;100.00;96928.02;1640774;86;25440;-86
2022/04/02 08:41:15;;;;;;;;;;;;;;;0.41;100.00;96920.47;1621871;87;24533;-86
2022/04/02 08:44:00;;;;;;;;;;;;;;;0.47;100.00;96927.03;1648752;86;20318;-84
2022/04/02 08:46:36;;;;;;;;;;;;;;;0.48;100.00;96925.30;1618402;87;25336;-84
2022/04/02 08:49:30;;;;;;;;;;;;;;;0.45;100.00;96930.59;1609110;87;22093;-84
2022/04/02 08:51:58;;;;;;;;;;;;;;;0.47;100.00;96928.77;1628939;86;25992;-84
2022/04/02 08:54:25;;;;;;;;;;;;;;;0.52;100.00;96933.22;1613330;86;24494;-84
2022/04/02 08:57:02;;;;;;;;;;;;;;;0.50;100.00;96932.00;1611562;86;20242;-85
2022/04/02 08:59:29;;;;;;;;;;;;;;;0.51;100.00;96934.12;1614447;87;25554;-85
2022/04/02 09:01:57;;;;;;;;;;;;;;;0.47;100.00;96938.61;1611418;87;22046;-85
2022/04/02 09:04:37;;;;;;;;;;;;;;;0.46;100.00;96936.11;1616348;87;26719;-85
2022/04/02 09:07:25;;;;;;;;;;;;;;;0.54;100.00;96942.53;1625191;85;24603;-85
2022/04/02 09:09:53;;;;;;;;;;;;;;;0.62;100.00;96947.24;1610756;87;20298;-85
2022/04/02 09:12:23;;;;;;;;;;;;;;;0.71;100.00;96948.05;1629666;85;24659;-85
2022/04/02 09:15:02;;;;;;;;;;;;;;;0.75;100.00;96956.81;1610308;87;22714;-85
2022/04/02 09:17:47;;;;;;;;;;;;;;;0.72;100.00;96954.38;1574660;89;26081;-86
2022/04/02 09:20:23;;;;;;;;;;;;;;;0.73;100.00;96957.80;1627131;86;24502;-86
2022/04/02 09:22:51;;;;;;;;;;;;;;;0.70;100.00;96960.55;1626439;86;20322;-85
2022/04/02 09:25:35;;;;;;;;;;;;;;;0.74;100.00;96958.17;1631916;86;24783;-85
2022/04/02 09:28:06;;;;;;;;;;;;;;;0.69;100.00;96961.45;1609275;86;22058;-87
2022/04/02 09:30:50;;;;;;;;;;;;;;;0.73;100.00;96960.36;1607292;88;26598;-85
2022/04/02 09:33:22;;;;;;;;;;;;;;;0.63;100.00;96963.06;1601481;86;24412;-85
2022/04/02 09:35:53;;;;;;;;;;;;;;;0.54;100.00;96962.28;1599710;88;20219;-86
2022/04/02 09:38:40;;;;;;;;;;;;;;;0.52;100.00;96964.09;1596271;86;25501;-87
2022/04/02 09:41:18;;;;;;;;;;;;;;;0.53;100.00;96962.73;1586534;88;22113;-85
2022/04/02 09:43:58;;;;;;;;;;;;;;;0.63;100.00;96972.91;1581119;88;26000;-85
2022/04/02 09:46:26;;;;;;;;;;;;;;;0.60;100.00;96973.55;1597738;86;24615;-86
2022/04/02 09:49:09;;;;;;;;;;;;;;;0.57;100.00;96971.11;1574499;88;20198;-86
2022/04/02 09:51:38;;;;;;;;;;;;;;;0.59;100.00;96970.59;1600450;87;25550;-85
2022/04/02 09:54:06;;;;;;;;;;;;;;;0.67;100.00;96967.13;1599099;86;22055;-85
2022/04/02 09:56:35;;;;;;;;;;;;;;;0.74;100.00;96973.62;1599776;88;26095;-86
2022/04/02 09:59:05;;;;;;;;;;;;;;;0.67;100.00;96974.85;1627274;86;24544;-85
2022/04/02 10:01:36;;;;;;;;;;;;;;;0.62;100.00;96976.39;1625957;87;20223;-85
2022/04/02 10:04:12;;;;;;;;;;;;;;;0.62;100.00;96980.25;1597544;89;24740;-86
2022/04/02 10:06:43;;;;;;;;;;;;;;;0.73;100.00;96977.10;1563630;90;21976;-85
2022/04/02 10:09:13;;;;;;;;;;;;;;;0.83;100.00;96982.13;1602485;88;25045;-85
2022/04/02 10:11:41;;;;;;;;;;;;;;;0.88;100.00;96986.56;1613731;86;24445;-87
2022/04/02 10:14:07;;;;;;;;;;;;;;;0.92;100.00;96985.95;1589145;87;20334;-84
2022/04/02 10:16:35;;;;;;;;;;;;;;;0.94;100.00;96982.82;1601854;87;24813;-84
2022/04/02 10:19:03;;;;;;;;;;;;;;;0.92;100.00;96985.95;1600132;86;22952;-85
2022/04/02 10:21:36;;;;;;;;;;;;;;;0.98;100.00;96989.48;1596997;86;25983;-88
2022/04/02 10:24:16;;;;;;;;;;;;;;;1.00;100.00;96987.19;1589107;88;25130;-86
2022/04/02 10:26:45;;;;;;;;;;;;;;;1.03;100.00;96987.48;1599477;89;20409;-85
2022/04/02 10:29:12;;;;;;;;;;;;;;;1.04;100.00;96989.13;1574941;90;24753;-85
2022/04/02 10:31:52;;;;;;;;;;;;;;;1.06;100.00;96987.31;1592357;89;21984;-86
2022/04/02 10:34:23;;;;;;;;;;;;;;;1.03;100.00;96997.80;1588820;88;26006;-86
2022/04/02 10:36:51;;;;;;;;;;;;;;;0.88;100.00;96993.00;1591557;88;24646;-86
2022/04/02 10:39:22;;;;;;;;;;;;;;;0.88;100.00;96995.58;1589325;89;20365;-87
2022/04/02 10:41:50;;;;;;;;;;;;;;;0.86;100.00;97000.00;1589424;88;25370;-86
2022/04/02 10:44:21;;;;;;;;;;;;;;;0.83;100.00;96998.86;1589747;90;23463;-86
2022/04/02 10:46:48;;;;;;;;;;;;;;;0.78;100.00;96998.28;1590404;88;26006;-86
2022/04/02 10:49:18;;;;;;;;;;;;;;;0.80;100.00;96995.17;1599442;88;24416;-86
2022/04/02 10:51:47;;;;;;;;;;;;;;;0.80;100.00;96999.88;1590886;89;20239;-87
2022/04/02 10:54:16;;;;;;;;;;;;;;;0.81;100.00;97000.25;1597644;88;24754;-87
2022/04/02 10:56:43;;;;;;;;;;;;;;;0.76;100.00;97000.92;1577792;90;22031;-87
2022/04/02 10:59:10;;;;;;;;;;;;;;;0.82;100.00;97005.75;1597857;89;26038;-87
2022/04/02 11:01:40;;;;;;;;;;;;;;;0.90;100.00;97004.52;1589529;88;24392;-86
2022/04/02 11:04:08;;;;;;;;;;;;;;;0.87;100.00;97002.95;1596443;88;20484;-86
2022/04/02 11:06:44;;;;;;;;;;;;;;;0.78;100.00;97006.83;1583832;90;24747;-86
2022/04/02 11:09:27;;;;;;;;;;;;;;;0.78;100.00;97009.41;1597898;88;22135;-87
2022/04/02 11:11:55;;;;;;;;;;;;;;;0.83;100.00;97007.42;1585375;90;26082;-86
2022/04/02 11:14:21;;;;;;;;;;;;;;;0.83;100.00;97010.45;1585575;89;24497;-87
2022/04/02 11:16:50;;;;;;;;;;;;;;;0.81;100.00;97009.72;1591326;88;20272;-86
2022/04/02 11:22:03;;;;;;;;;;;;;;;0.99;100.00;97020.30;1579807;88;22152;-87
2022/04/02 11:24:31;;;;;;;;;;;;;;;1.05;100.00;97018.67;1597187;89;26094;-87
2022/04/02 11:26:58;;;;;;;;;;;;;;;1.06;100.00;97019.50;1603151;88;24472;-86
2022/04/02 11:29:25;;;;;;;;;;;;;;;1.04;100.00;97025.19;1597333;88;20317;-86
2022/04/02 11:31:52;;;;;;;;;;;;;;;1.03;100.00;97025.67;1596305;89;24840;-87
2022/04/02 11:34:20;;;;;;;;;;;;;;;1.02;100.00;97031.73;1599131;88;21918;-87
2022/04/02 11:36:47;;;;;;;;;;;;;;;1.03;100.00;97033.86;1594700;88;26019;-87
2022/04/02 11:39:16;;;;;;;;;;;;;;;0.98;100.00;97029.41;1582386;88;24413;-87
2022/04/02 11:41:42;;;;;;;;;;;;;;;0.96;100.00;97035.92;1584248;89;20249;-87
2022/04/02 11:44:10;;;;;;;;;;;;;;;0.98;100.00;97038.42;1596954;88;24987;-86
2022/04/02 11:47:00;;;;;;;;;;;;;;;1.04;100.00;97032.91;1604426;87;21909;-86
2022/04/02 11:49:28;;;;;;;;;;;;;;;1.13;100.00;97036.30;1583581;90;26019;-86
2022/04/02 11:52:05;;;;;;;;;;;;;;;1.11;100.00;97043.27;1582296;90;24440;-86
2022/04/02 11:54:35;;;;;;;;;;;;;;;1.11;100.00;97040.23;1581445;89;20225;-86
2022/04/02 11:57:09;;;;;;;;;;;;;;;1.18;100.00;97045.89;1571010;90;25153;-86
2022/04/02 11:59:36;;;;;;;;;;;;;;;1.21;100.00;97043.14;1593699;89;22904;-86
2022/04/02 12:02:04;;;;;;;;;;;;;;;1.22;100.00;97039.66;1597066;88;26236;-87
2022/04/02 12:04:30;;;;;;;;;;;;;;;1.22;100.00;97034.50;1553711;91;24580;-87
2022/04/02 12:07:05;;;;;;;;;;;;;;;1.24;100.00;97043.82;1576002;88;20237;-88
2022/04/02 12:09:39;;;;;;;;;;;;;;;1.30;100.00;97045.23;1569013;88;25416;-85
2022/04/02 12:12:13;;;;;;;;;;;;;;;1.31;100.00;97044.29;1601530;89;22080;-87
2022/04/02 12:14:42;;;;;;;;;;;;;;;1.29;100.00;97041.44;1586078;90;26026;-87
2022/04/02 12:17:17;;;;;;;;;;;;;;;1.26;100.00;97048.86;1599503;89;24530;-87
2022/04/02 12:19:56;;;;;;;;;;;;;;;1.25;100.00;97049.81;1600267;88;20260;-87
2022/04/02 12:22:27;;;;;;;;;;;;;;;1.20;100.00;97051.81;1595519;88;24924;-87
2022/04/02 12:24:54;;;;;;;;;;;;;;;1.16;100.00;97064.45;1602470;87;22059;-86
2022/04/02 12:27:23;;;;;;;;;;;;;;;1.05;100.00;97061.63;1627664;87;26177;-86
2022/04/02 12:29:53;;;;;;;;;;;;;;;0.96;100.00;97059.55;1622088;87;24562;-86
2022/04/02 12:32:34;;;;;;;;;;;;;;;0.93;100.00;97068.27;1624545;88;20266;-85
2022/04/02 12:35:01;;;;;;;;;;;;;;;0.77;100.00;97071.28;1607979;86;24745;-86
2022/04/02 12:37:29;;;;;;;;;;;;;;;0.72;100.00;97066.83;1635701;85;21517;-87
2022/04/02 12:39:55;;;;;;;;;;;;;;;0.71;100.00;97064.70;1636560;86;26107;-86
2022/04/02 12:42:37;;;;;;;;;;;;;;;0.69;100.00;97072.16;1626211;87;24384;-87
2022/04/02 12:45:06;;;;;;;;;;;;;;;0.71;100.00;97072.91;1625007;86;20299;-87
2022/04/02 12:47:34;;;;;;;;;;;;;;;0.73;100.00;97080.08;1624520;86;24893;-86
2022/04/02 12:50:13;;;;;;;;;;;;;;;0.73;100.00;97078.34;1624051;88;21986;-86
2022/04/02 12:52:43;;;;;;;;;;;;;;;0.72;100.00;97079.25;1624009;86;25997;-86
2022/04/02 12:55:11;;;;;;;;;;;;;;;0.76;100.00;97081.23;1619742;86;24460;-84
2022/04/02 12:57:39;;;;;;;;;;;;;;;0.81;100.00;97081.81;1628322;86;20256;-87
2022/04/02 13:00:09;;;;;;;;;;;;;;;0.80;100.00;97087.41;1613420;85;25715;-85
2022/04/02 13:02:36;;;;;;;;;;;;;;;0.81;100.00;97092.11;1596122;87;22016;-86